TimeEST,TemperatureF,Dew PointF,Humidity,Sea Level PressureIn,VisibilityMPH,Wind Direction,Wind SpeedMPH,Gust SpeedMPH,PrecipitationIn,Events,Conditions,WindDirDegrees,DateUTC
12:00 AM,19.4,14.0,80,29.98,2.0,Calm,Calm,-,0.00,Snow,Light Snow,0,2013-12-17 05:00:00
12:13 AM,19.4,14.0,80,29.98,1.8,Calm,Calm,-,0.00,Snow,Light Snow,0,2013-12-17 05:13:00
12:53 AM,19.0,14.0,81,30.01,4.0,NW,4.6,-,0.00,Snow,Light Snow,310,2013-12-17 05:53:00
1:53 AM,19.9,14.0,78,29.99,8.0,NNW,3.5,-,0.00,,Overcast,340,2013-12-17 06:53:00
2:28 AM,19.4,12.2,74,29.95,8.0,Calm,Calm,-,N/A,,Overcast,0,2013-12-17 07:28:00
2:53 AM,16.0,12.0,84,29.98,6.0,Calm,Calm,-,N/A,,Overcast,0,2013-12-17 07:53:00
3:53 AM,15.1,10.0,80,29.98,6.0,WNW,3.5,-,N/A,,Haze,300,2013-12-17 08:53:00
4:51 AM,17.6,12.2,79,29.95,7.0,WSW,5.8,-,N/A,,Mostly Cloudy,240,2013-12-17 09:51:00
4:53 AM,17.1,12.0,81,29.99,7.0,WSW,6.9,-,N/A,,Mostly Cloudy,240,2013-12-17 09:53:00
5:22 AM,17.6,12.2,79,29.94,9.0,SW,6.9,-,N/A,,Overcast,230,2013-12-17 10:22:00
5:53 AM,19.0,12.9,77,29.98,9.0,SW,6.9,-,N/A,,Overcast,220,2013-12-17 10:53:00
6:42 AM,19.4,14.0,80,29.97,7.0,WSW,8.1,-,N/A,,Overcast,250,2013-12-17 11:42:00
6:53 AM,19.9,14.0,78,30.01,7.0,WSW,6.9,-,N/A,,Overcast,240,2013-12-17 11:53:00
7:53 AM,21.0,15.1,78,30.01,6.0,SSW,8.1,-,N/A,,Haze,210,2013-12-17 12:53:00
8:27 AM,21.2,15.8,80,29.98,4.0,SSW,8.1,-,N/A,,Haze,210,2013-12-17 13:27:00
8:53 AM,21.9,17.1,82,30.01,4.0,SSW,9.2,-,N/A,,Haze,210,2013-12-17 13:53:00
9:53 AM,25.0,18.0,75,30.00,4.0,SW,12.7,-,N/A,,Haze,220,2013-12-17 14:53:00
10:53 AM,26.1,19.0,75,29.98,5.0,SSW,15.0,-,N/A,,Haze,210,2013-12-17 15:53:00
11:04 AM,26.6,19.4,74,29.95,6.0,SSW,13.8,-,N/A,,Haze,210,2013-12-17 16:04:00
11:53 AM,26.1,19.0,75,29.94,6.0,South,17.3,-,N/A,,Haze,190,2013-12-17 16:53:00
12:53 PM,25.0,18.0,75,29.92,5.0,SW,12.7,-,N/A,,Haze,220,2013-12-17 17:53:00
1:03 PM,24.8,17.6,74,29.89,5.0,SW,18.4,23.0,N/A,,Haze,220,2013-12-17 18:03:00
1:31 PM,24.8,17.6,74,29.89,4.0,SSW,19.6,27.6,N/A,,Haze,210,2013-12-17 18:31:00
1:50 PM,24.8,17.6,74,29.89,1.8,SW,16.1,23.0,0.00,Snow,Light Snow,230,2013-12-17 18:50:00
1:53 PM,25.0,18.0,75,29.91,1.2,SW,17.3,-,0.00,Snow,Light Snow,230,2013-12-17 18:53:00
2:02 PM,24.8,19.4,80,29.88,0.5,SW,16.1,-,0.00,Snow,Snow,220,2013-12-17 19:02:00
2:27 PM,24.8,19.4,80,29.88,1.5,SW,16.1,-,0.00,Snow,Light Snow,220,2013-12-17 19:27:00
2:53 PM,26.1,19.0,75,29.91,2.0,SW,15.0,-,0.00,Snow,Light Snow,220,2013-12-17 19:53:00
3:00 PM,26.6,19.4,74,29.88,2.5,SW,15.0,-,0.00,Snow,Light Snow,220,2013-12-17 20:00:00
3:11 PM,26.6,19.4,74,29.88,3.0,SW,13.8,-,0.00,,Haze,220,2013-12-17 20:11:00
3:46 PM,26.6,19.4,74,29.89,4.0,SW,12.7,-,0.00,,Haze,220,2013-12-17 20:46:00
3:53 PM,26.1,19.0,75,29.92,4.0,SSW,12.7,-,0.00,,Haze,210,2013-12-17 20:53:00
4:00 PM,26.6,19.4,74,29.90,4.0,SW,11.5,-,N/A,,Haze,220,2013-12-17 21:00:00
4:53 PM,26.1,19.0,75,29.92,4.0,SSW,15.0,-,N/A,,Haze,210,2013-12-17 21:53:00
5:07 PM,26.6,19.4,74,29.90,4.0,SW,12.7,-,N/A,,Haze,220,2013-12-17 22:07:00
5:53 PM,27.0,19.9,75,29.93,6.0,SW,13.8,-,N/A,,Haze,220,2013-12-17 22:53:00
6:26 PM,26.6,19.4,74,29.91,4.0,SW,11.5,-,0.00,Snow,Light Snow,220,2013-12-17 23:26:00
6:50 PM,26.6,19.4,74,29.92,4.0,SW,10.4,-,0.00,,Haze,220,2013-12-17 23:50:00
6:53 PM,27.0,19.9,75,29.95,5.0,SW,9.2,-,0.00,,Haze,220,2013-12-17 23:53:00
7:24 PM,26.6,19.4,74,29.93,5.0,SW,11.5,-,N/A,,Haze,220,2013-12-18 00:24:00
7:53 PM,27.0,19.9,75,29.96,6.0,SW,10.4,-,N/A,,Haze,230,2013-12-18 00:53:00
8:53 PM,25.0,19.0,78,29.98,6.0,SW,8.1,-,N/A,,Haze,220,2013-12-18 01:53:00
9:53 PM,19.9,16.0,85,29.99,4.0,SW,6.9,-,N/A,,Clear,220,2013-12-18 02:53:00
10:53 PM,18.0,14.0,84,30.01,3.0,SSW,6.9,-,N/A,,Clear,210,2013-12-18 03:53:00
11:36 PM,19.4,15.8,86,30.00,2.5,SW,5.8,-,N/A,,Mostly Cloudy,220,2013-12-18 04:36:00
11:45 PM,19.4,15.8,86,29.99,3.0,SW,4.6,-,N/A,,Overcast,220,2013-12-18 04:45:00
11:53 PM,19.9,16.0,85,30.02,3.0,SSW,3.5,-,N/A,,Overcast,210,2013-12-18 04:53:00